Time;durP1;ratioP1;P1;durP2;ratioP2;P2;SDS_P1;SDS_P2;PMS_P1;PMS_P2;Temp;Humidity;BMP_temperature;BMP_pressure;BME280_temperature;BME280_humidity;BME280_pressure;Samples;Min_cycle;Max_cycle;Signal;HPM_P1;HPM_P2
2022/07/22 00:02:14;;;;;;;7.55;2.22;;;16.70;99.90;;;;;;5085147;28;20044;-72
2022/07/22 00:04:39;;;;;;;7.15;2.20;;;16.70;99.90;;;;;;5075191;28;20047;-73
2022/07/22 00:07:05;;;;;;;9.48;2.22;;;16.60;99.90;;;;;;5044340;28;20044;-74
2022/07/22 00:09:32;;;;;;;8.60;2.53;;;16.70;99.90;;;;;;5090256;28;20487;-71
2022/07/22 00:11:57;;;;;;;7.43;2.65;;;16.70;99.90;;;;;;5088910;28;20075;-72
2022/07/22 00:14:23;;;;;;;7.82;2.63;;;16.70;99.90;;;;;;5068676;28;20164;-69
2022/07/22 00:16:49;;;;;;;7.75;2.50;;;16.60;99.90;;;;;;5079678;28;20093;-72
2022/07/22 00:19:14;;;;;;;9.43;3.22;;;16.70;99.90;;;;;;5046123;28;20048;-69
2022/07/22 00:21:40;;;;;;;6.28;2.85;;;16.70;99.90;;;;;;5071274;28;20395;-70
2022/07/22 00:24:06;;;;;;;8.52;2.95;;;16.60;99.90;;;;;;5089467;28;20131;-74
2022/07/22 00:26:32;;;;;;;8.40;2.70;;;16.60;99.90;;;;;;5084925;28;20047;-71
2022/07/22 00:28:58;;;;;;;8.18;2.83;;;16.50;99.90;;;;;;5074294;28;20044;-70
2022/07/22 00:31:23;;;;;;;8.55;3.00;;;16.50;99.90;;;;;;5071565;28;20052;-69
2022/07/22 00:33:49;;;;;;;8.05;3.00;;;16.40;99.90;;;;;;5087984;28;20036;-70
2022/07/22 00:36:15;;;;;;;8.55;2.85;;;16.40;99.90;;;;;;5089501;28;20044;-71
2022/07/22 00:38:40;;;;;;;11.30;3.30;;;16.40;99.90;;;;;;5082239;28;20079;-71
2022/07/22 00:41:06;;;;;;;8.65;3.20;;;16.30;99.90;;;;;;5038180;28;20106;-71
2022/07/22 00:43:57;;;;;;;10.55;2.97;;;16.30;99.90;;;;;;5088600;28;20040;-71
2022/07/22 00:46:24;;;;;;;11.77;3.70;;;16.30;99.90;;;;;;5074739;28;20044;-71
2022/07/22 00:48:50;;;;;;;7.20;3.30;;;16.40;99.90;;;;;;5074528;28;20487;-71
2022/07/22 00:51:18;;;;;;;10.68;3.17;;;16.40;99.90;;;;;;5074890;28;20551;-76
2022/07/22 00:53:45;;;;;;;9.50;3.67;;;16.40;99.90;;;;;;5061546;28;20048;-71
2022/07/22 00:56:12;;;;;;;7.40;2.97;;;16.40;99.90;;;;;;5074965;28;20048;-71
2022/07/22 00:58:38;;;;;;;10.65;3.33;;;16.40;99.90;;;;;;5074926;28;20040;-71
2022/07/22 01:01:04;;;;;;;9.23;3.80;;;16.40;99.90;;;;;;5048077;28;20048;-71
2022/07/22 01:03:30;;;;;;;10.75;3.30;;;16.40;99.90;;;;;;5070372;28;20440;-72
2022/07/22 01:05:56;;;;;;;10.43;3.97;;;16.40;99.90;;;;;;5074477;28;20055;-71
2022/07/22 01:08:22;;;;;;;11.50;3.70;;;16.40;99.90;;;;;;5074563;28;20486;-71
2022/07/22 01:10:47;;;;;;;12.98;3.75;;;16.40;99.90;;;;;;5093229;28;20044;-71
2022/07/22 01:13:13;;;;;;;12.63;3.90;;;16.40;99.90;;;;;;5048693;28;20051;-72
2022/07/22 01:15:39;;;;;;;12.00;4.57;;;16.40;99.90;;;;;;5093061;28;20040;-72
2022/07/22 01:18:04;;;;;;;7.18;3.00;;;16.40;99.90;;;;;;5073465;28;20117;-72
2022/07/22 01:20:31;;;;;;;10.10;3.80;;;16.40;99.90;;;;;;5076148;28;20048;-71
2022/07/22 01:22:57;;;;;;;12.07;3.95;;;16.40;99.90;;;;;;5078245;28;20135;-72
2022/07/22 01:25:22;;;;;;;9.88;3.65;;;16.40;99.90;;;;;;5096957;28;20119;-72
2022/07/22 01:27:48;;;;;;;11.38;3.65;;;16.40;99.90;;;;;;5078546;28;20047;-72
2022/07/22 01:30:14;;;;;;;14.10;4.63;;;16.40;99.90;;;;;;5096422;28;20047;-72
2022/07/22 01:32:40;;;;;;;10.02;3.78;;;16.40;99.90;;;;;;5077852;28;20447;-72
2022/07/22 01:35:06;;;;;;;11.05;4.25;;;16.40;99.90;;;;;;5059171;28;20125;-73
2022/07/22 01:37:33;;;;;;;11.45;3.97;;;16.40;99.90;;;;;;5067021;28;20047;-72
2022/07/22 01:39:59;;;;;;;12.25;5.05;;;16.40;99.90;;;;;;5077913;28;20047;-72
2022/07/22 01:42:25;;;;;;;12.45;4.68;;;16.40;99.90;;;;;;5078667;28;20134;-73
2022/07/22 01:44:51;;;;;;;13.25;4.05;;;16.40;99.90;;;;;;5096498;28;20444;-72
2022/07/22 01:47:17;;;;;;;11.48;3.70;;;16.40;99.90;;;;;;5060318;28;20048;-72
2022/07/22 01:49:43;;;;;;;11.45;4.10;;;16.40;99.90;;;;;;5078545;28;20048;-72
2022/07/22 01:52:09;;;;;;;12.43;4.72;;;16.40;99.90;;;;;;5046998;28;20098;-72
2022/07/22 01:54:34;;;;;;;10.20;3.70;;;16.40;99.90;;;;;;5061478;28;20036;-72
2022/07/22 01:57:00;;;;;;;12.73;4.20;;;16.40;99.90;;;;;;5041670;28;20045;-72
2022/07/22 01:59:26;;;;;;;13.68;4.40;;;16.50;99.90;;;;;;5078204;28;20040;-71
2022/07/22 02:01:52;;;;;;;11.35;3.83;;;16.50;99.90;;;;;;5078014;28;20051;-72
2022/07/22 02:04:17;;;;;;;12.95;4.00;;;16.40;99.90;;;;;;5094810;28;20047;-72
2022/07/22 02:06:43;;;;;;;11.85;4.13;;;16.40;99.90;;;;;;5077800;28;20402;-72
2022/07/22 02:09:09;;;;;;;11.63;3.55;;;16.40;99.90;;;;;;5077313;28;20059;-72
2022/07/22 02:11:34;;;;;;;11.05;3.72;;;16.40;99.90;;;;;;5076387;28;20518;-71
2022/07/22 02:14:01;;;;;;;12.02;3.85;;;16.30;99.90;;;;;;5060822;28;20528;-73
2022/07/22 02:16:27;;;;;;;10.02;3.45;;;16.40;99.90;;;;;;5045120;28;20052;-70
2022/07/22 02:18:52;;;;;;;15.35;4.30;;;16.30;99.90;;;;;;5075560;28;20044;-72
2022/07/22 02:21:18;;;;;;;12.20;3.65;;;16.30;99.90;;;;;;5077971;28;20115;-71
2022/07/22 02:23:44;;;;;;;13.27;3.80;;;16.20;99.90;;;;;;5092866;28;20058;-73
2022/07/22 02:26:10;;;;;;;7.70;2.70;;;16.20;99.90;;;;;;5089404;28;20143;-73
2022/07/22 02:28:36;;;;;;;11.38;3.42;;;16.20;99.90;;;;;;5073924;28;20036;-72
2022/07/22 02:31:01;;;;;;;11.50;3.55;;;16.20;99.90;;;;;;5069112;28;20055;-71
2022/07/22 02:33:29;;;;;;;11.32;3.50;;;16.20;99.90;;;;;;5094529;28;20455;-73
2022/07/22 02:35:56;;;;;;;11.07;3.50;;;16.20;99.90;;;;;;5077351;28;20525;-72
2022/07/22 02:38:21;;;;;;;12.18;3.42;;;16.20;99.90;;;;;;5059867;28;20403;-72
2022/07/22 02:40:47;;;;;;;9.75;3.40;;;16.20;99.90;;;;;;5060811;28;20054;-72
2022/07/22 02:43:13;;;;;;;11.48;3.80;;;16.20;99.90;;;;;;5059886;28;20052;-82
2022/07/22 02:45:39;;;;;;;9.93;3.10;;;16.20;99.90;;;;;;5041237;28;20052;-72
2022/07/22 02:48:05;;;;;;;11.60;3.05;;;16.20;99.90;;;;;;5068413;28;20418;-72
2022/07/22 02:50:32;;;;;;;10.23;3.00;;;16.20;99.90;;;;;;5059653;28;20461;-72
2022/07/22 02:52:58;;;;;;;11.32;3.67;;;16.20;99.90;;;;;;5057261;28;20480;-73
2022/07/22 02:55:24;;;;;;;11.05;3.25;;;16.20;99.90;;;;;;5072609;28;20087;-73
2022/07/22 02:57:50;;;;;;;14.45;3.92;;;16.20;99.90;;;;;;5068731;28;20149;-72
2022/07/22 03:00:17;;;;;;;11.65;3.22;;;16.20;99.90;;;;;;5070972;28;20052;-73
2022/07/22 03:02:42;;;;;;;14.80;3.80;;;16.20;99.90;;;;;;5075978;28;20210;-73
2022/07/22 03:05:08;;;;;;;13.77;3.47;;;16.20;99.90;;;;;;5077111;28;20144;-73
2022/07/22 03:07:34;;;;;;;13.85;3.40;;;16.20;99.90;;;;;;5062198;28;20040;-72
2022/07/22 03:10:01;;;;;;;10.63;3.40;;;16.20;99.90;;;;;;5086993;28;20066;-73
2022/07/22 03:12:27;;;;;;;9.40;3.10;;;16.20;99.90;;;;;;5076732;28;20509;-73
2022/07/22 03:14:52;;;;;;;14.48;3.50;;;16.20;99.90;;;;;;5059815;28;20036;-73
2022/07/22 03:17:18;;;;;;;10.32;3.00;;;16.20;99.90;;;;;;5059186;28;20051;-72
2022/07/22 03:19:44;;;;;;;13.48;3.78;;;16.20;99.90;;;;;;5060002;28;20082;-73
2022/07/22 03:22:10;;;;;;;12.75;3.45;;;16.20;99.90;;;;;;5076619;28;20080;-73
2022/07/22 03:24:36;;;;;;;12.30;3.55;;;16.20;99.90;;;;;;5076089;28;20458;-74
2022/07/22 03:27:01;;;;;;;11.07;2.80;;;16.20;99.90;;;;;;5076514;28;20423;-75
2022/07/22 03:29:27;;;;;;;11.10;3.50;;;16.10;99.90;;;;;;5075550;28;20040;-74
2022/07/22 03:31:53;;;;;;;10.35;3.40;;;16.10;99.90;;;;;;5076496;28;20055;-74
2022/07/22 03:34:18;;;;;;;11.18;3.22;;;16.10;99.90;;;;;;5075266;28;20425;-74
2022/07/22 03:36:44;;;;;;;9.95;2.90;;;16.00;99.90;;;;;;5075540;28;20429;-74
2022/07/22 03:39:10;;;;;;;10.93;3.10;;;16.10;99.90;;;;;;5059415;28;20048;-75
2022/07/22 03:41:35;;;;;;;11.38;2.80;;;16.00;99.90;;;;;;5061502;28;20040;-75
2022/07/22 03:44:01;;;;;;;12.48;3.20;;;16.00;99.90;;;;;;5059318;28;20120;-74
2022/07/22 03:46:27;;;;;;;10.20;3.22;;;16.10;99.90;;;;;;5059183;28;20061;-75
2022/07/22 03:48:52;;;;;;;12.02;2.92;;;16.10;99.90;;;;;;5058455;28;20556;-74
2022/07/22 03:51:18;;;;;;;10.98;3.15;;;16.00;99.90;;;;;;5051851;28;20045;-74
2022/07/22 03:53:44;;;;;;;11.07;2.92;;;16.00;99.90;;;;;;5073760;28;20044;-74
2022/07/22 03:56:09;;;;;;;11.55;2.92;;;16.00;99.90;;;;;;5075864;28;20082;-75
2022/07/22 03:58:35;;;;;;;13.50;3.00;;;16.00;99.90;;;;;;5075542;28;20173;-74
2022/07/22 04:01:01;;;;;;;10.52;2.70;;;16.00;99.90;;;;;;5075195;28;20052;-74
2022/07/22 04:03:26;;;;;;;10.35;2.65;;;16.00;99.90;;;;;;5074851;28;20063;-74
2022/07/22 04:05:52;;;;;;;8.02;2.60;;;16.00;99.90;;;;;;5059492;28;20520;-74
2022/07/22 04:08:18;;;;;;;12.05;2.90;;;16.00;99.90;;;;;;5093373;28;20066;-74
2022/07/22 04:10:45;;;;;;;9.27;2.70;;;16.00;99.90;;;;;;5042237;28;20048;-74
2022/07/22 04:13:11;;;;;;;8.75;2.67;;;16.00;99.90;;;;;;5057248;28;20508;-76
2022/07/22 04:15:36;;;;;;;11.07;3.00;;;16.00;99.90;;;;;;5059563;28;20083;-74
2022/07/22 04:18:02;;;;;;;10.35;2.50;;;16.00;99.90;;;;;;5067168;28;20471;-74
2022/07/22 04:20:28;;;;;;;7.57;2.50;;;16.00;99.90;;;;;;5093078;28;20066;-76
2022/07/22 04:22:54;;;;;;;8.63;2.60;;;16.00;99.90;;;;;;5074809;28;20094;-75
2022/07/22 04:25:19;;;;;;;9.25;2.60;;;16.00;99.90;;;;;;5075288;28;20048;-74
2022/07/22 04:27:45;;;;;;;9.27;2.25;;;16.00;99.90;;;;;;5058212;28;20060;-74
2022/07/22 04:30:11;;;;;;;8.27;2.35;;;16.00;99.90;;;;;;5075104;28;20066;-74
2022/07/22 04:32:37;;;;;;;8.02;2.10;;;16.00;99.90;;;;;;5057669;28;20112;-74
2022/07/22 04:35:04;;;;;;;9.15;2.53;;;16.00;99.90;;;;;;5074975;28;20119;-74
2022/07/22 04:37:30;;;;;;;8.10;2.47;;;16.00;99.90;;;;;;5074779;28;20509;-74
2022/07/22 04:39:56;;;;;;;11.68;2.95;;;16.00;99.90;;;;;;5072432;28;20079;-74
2022/07/22 04:42:22;;;;;;;9.77;2.80;;;16.00;99.90;;;;;;5063765;28;20070;-74
2022/07/22 04:44:47;;;;;;;10.55;2.70;;;16.00;99.90;;;;;;5092757;28;20482;-74
2022/07/22 04:47:13;;;;;;;10.05;2.83;;;16.00;99.90;;;;;;5073714;28;20113;-75
2022/07/22 04:49:39;;;;;;;10.95;2.50;;;16.10;99.90;;;;;;5093220;28;20149;-74
2022/07/22 04:52:05;;;;;;;8.40;2.30;;;16.10;99.90;;;;;;5057911;28;20039;-74
2022/07/22 04:54:30;;;;;;;10.50;2.80;;;16.10;99.90;;;;;;5073760;28;20127;-74
2022/07/22 04:56:56;;;;;;;8.18;2.53;;;16.10;99.90;;;;;;5074094;28;20514;-74
2022/07/22 04:59:22;;;;;;;8.85;2.50;;;16.10;99.90;;;;;;5074705;28;20044;-73
2022/07/22 05:01:47;;;;;;;8.65;2.53;;;16.10;99.90;;;;;;5092615;28;20479;-74
2022/07/22 05:04:13;;;;;;;10.27;2.67;;;16.10;99.90;;;;;;5074070;28;20054;-74
2022/07/22 05:06:39;;;;;;;9.55;2.60;;;16.10;99.90;;;;;;5092869;28;20490;-74
2022/07/22 05:09:05;;;;;;;8.73;2.75;;;16.10;99.90;;;;;;5070781;28;20463;-74
2022/07/22 05:11:31;;;;;;;9.13;2.50;;;16.20;99.90;;;;;;5055193;28;20431;-74
2022/07/22 05:13:56;;;;;;;9.27;2.65;;;16.20;99.90;;;;;;5040169;28;20055;-73
2022/07/22 05:16:22;;;;;;;7.85;2.40;;;16.20;99.90;;;;;;5062566;28;20162;-75
2022/07/22 05:18:48;;;;;;;11.02;2.67;;;16.20;99.90;;;;;;5074456;28;20041;-77
2022/07/22 05:21:13;;;;;;;10.55;2.50;;;16.20;99.90;;;;;;5069220;28;20045;-74
2022/07/22 05:23:39;;;;;;;9.07;2.60;;;16.30;99.90;;;;;;5087058;28;20094;-73
2022/07/22 05:26:05;;;;;;;10.15;2.60;;;16.30;99.90;;;;;;5069858;28;20059;-77
2022/07/22 05:28:31;;;;;;;7.97;2.40;;;16.30;99.90;;;;;;5045722;28;20151;-74
2022/07/22 05:30:56;;;;;;;8.13;2.55;;;16.30;99.90;;;;;;5048906;28;20505;-72
2022/07/22 05:33:22;;;;;;;9.52;2.63;;;16.40;99.90;;;;;;5061814;28;20036;-73
2022/07/22 05:35:48;;;;;;;9.48;2.63;;;16.40;99.90;;;;;;5077682;28;20101;-73
2022/07/22 05:38:13;;;;;;;7.55;2.35;;;16.40;99.90;;;;;;5058237;28;20490;-75
2022/07/22 05:40:39;;;;;;;9.48;2.50;;;16.40;99.90;;;;;;5071222;28;20040;-76
2022/07/22 05:43:05;;;;;;;8.68;2.40;;;16.50;99.90;;;;;;5078911;28;20040;-74
2022/07/22 05:45:30;;;;;;;8.77;2.60;;;16.50;99.90;;;;;;5073521;28;20052;-75
2022/07/22 05:47:56;;;;;;;10.30;2.55;;;16.50;99.90;;;;;;5067880;28;20399;-77
2022/07/22 05:50:22;;;;;;;9.25;2.40;;;16.50;99.90;;;;;;5070741;28;20403;-74
2022/07/22 05:52:47;;;;;;;7.82;2.50;;;16.60;99.90;;;;;;5056900;28;20056;-74
2022/07/22 05:55:13;;;;;;;10.23;2.47;;;16.50;99.90;;;;;;5057152;28;20040;-75
2022/07/22 05:57:39;;;;;;;8.73;2.33;;;16.50;99.90;;;;;;5073752;28;20098;-72
2022/07/22 06:00:06;;;;;;;7.47;2.50;;;16.60;99.90;;;;;;5056598;28;20052;-76
2022/07/22 06:02:32;;;;;;;9.75;2.70;;;16.60;99.90;;;;;;5071181;28;20497;-75
2022/07/22 06:05:00;;;;;;;7.22;2.30;;;16.60;99.90;;;;;;5055338;28;20051;-76
2022/07/22 06:07:26;;;;;;;7.97;2.50;;;16.60;99.90;;;;;;5074764;28;20080;-75
2022/07/22 06:09:52;;;;;;;10.40;2.70;;;16.70;99.90;;;;;;5074275;28;20051;-73
2022/07/22 06:12:18;;;;;;;11.20;2.80;;;16.70;99.90;;;;;;5075693;28;20475;-74
2022/07/22 06:14:44;;;;;;;8.65;2.38;;;16.70;99.90;;;;;;5093958;28;20048;-75
2022/07/22 06:17:09;;;;;;;8.38;2.80;;;16.70;99.90;;;;;;5060269;28;20060;-80
2022/07/22 06:19:35;;;;;;;10.43;2.22;;;16.80;99.90;;;;;;5077486;28;20048;-73
2022/07/22 06:22:01;;;;;;;7.53;2.30;;;16.80;99.90;;;;;;5078154;28;20044;-74
2022/07/22 06:24:26;;;;;;;5.97;2.15;;;16.80;99.90;;;;;;5094771;28;20109;-73
2022/07/22 06:26:52;;;;;;;9.20;2.40;;;16.80;99.90;;;;;;5074194;28;20044;-74
2022/07/22 06:29:18;;;;;;;8.85;2.28;;;16.90;99.90;;;;;;5087646;28;20491;-73
2022/07/22 06:31:43;;;;;;;7.65;2.13;;;16.90;99.90;;;;;;5067138;28;20532;-76
2022/07/22 06:34:09;;;;;;;7.75;2.00;;;17.00;99.90;;;;;;5068109;28;20127;-74
2022/07/22 06:36:35;;;;;;;6.63;2.10;;;17.00;99.90;;;;;;5064837;28;20165;-73
2022/07/22 06:39:01;;;;;;;9.55;2.38;;;17.00;99.90;;;;;;5079433;28;20108;-73
2022/07/22 06:41:27;;;;;;;7.63;2.05;;;17.10;99.90;;;;;;5016453;28;20052;-74
2022/07/22 06:43:53;;;;;;;8.15;2.13;;;17.20;99.90;;;;;;5059431;28;20500;-77
2022/07/22 06:46:19;;;;;;;7.30;2.10;;;17.20;99.90;;;;;;5037289;28;20044;-74
2022/07/22 06:48:44;;;;;;;7.20;1.90;;;17.30;99.90;;;;;;5045655;28;20059;-80
2022/07/22 06:51:10;;;;;;;7.63;2.00;;;17.30;99.90;;;;;;5049502;28;20051;-74
2022/07/22 06:53:36;;;;;;;8.85;2.20;;;17.30;99.90;;;;;;5074854;28;20714;-73
2022/07/22 06:56:02;;;;;;;7.22;2.05;;;17.30;99.90;;;;;;5085633;28;20041;-74
2022/07/22 06:58:28;;;;;;;8.48;2.10;;;17.40;99.90;;;;;;5060607;28;21686;-72
2022/07/22 07:00:53;;;;;;;6.20;1.80;;;17.50;99.90;;;;;;5051929;28;20123;-70
2022/07/22 07:03:20;;;;;;;9.48;2.03;;;17.40;99.90;;;;;;5082413;28;20047;-72
2022/07/22 07:05:45;;;;;;;6.88;1.98;;;17.40;99.90;;;;;;5065730;28;20044;-73
2022/07/22 07:08:11;;;;;;;8.82;2.08;;;17.50;99.90;;;;;;5071551;28;20049;-72
2022/07/22 07:10:37;;;;;;;7.30;2.00;;;17.60;99.90;;;;;;5037105;28;20048;-72
2022/07/22 07:13:02;;;;;;;10.98;2.17;;;17.60;99.90;;;;;;5060792;28;20044;-75
2022/07/22 07:15:28;;;;;;;8.85;1.90;;;17.70;99.90;;;;;;5057339;28;20052;-73
2022/07/22 07:17:56;;;;;;;8.02;1.95;;;17.70;99.90;;;;;;5067468;28;20047;-71
2022/07/22 07:20:23;;;;;;;9.35;2.10;;;17.70;99.90;;;;;;5063070;28;20063;-72
2022/07/22 07:22:49;;;;;;;6.88;2.05;;;17.80;99.90;;;;;;5040791;28;20044;-71
2022/07/22 07:25:15;;;;;;;6.47;1.70;;;17.80;99.90;;;;;;5071072;28;20046;-72
2022/07/22 07:27:40;;;;;;;9.13;2.03;;;17.80;99.90;;;;;;5057265;28;20089;-73
2022/07/22 07:30:08;;;;;;;7.10;1.70;;;17.80;99.90;;;;;;5040785;28;20060;-75
2022/07/22 07:32:34;;;;;;;6.03;1.60;;;17.90;99.90;;;;;;5047241;28;20078;-73
2022/07/22 07:35:01;;;;;;;7.45;1.83;;;17.90;99.90;;;;;;5068486;28;20536;-72
2022/07/22 07:37:26;;;;;;;7.50;1.70;;;17.90;99.90;;;;;;5062304;28;20074;-72
2022/07/22 07:39:52;;;;;;;7.38;1.80;;;18.00;99.90;;;;;;5058030;28;20048;-73
2022/07/22 07:42:18;;;;;;;8.27;1.60;;;18.10;99.90;;;;;;5039449;28;20056;-73
2022/07/22 07:44:44;;;;;;;7.85;1.77;;;18.10;99.90;;;;;;5069378;28;20044;-74
2022/07/22 07:47:09;;;;;;;8.88;1.90;;;18.20;99.90;;;;;;5057570;28;20124;-76
2022/07/22 07:49:35;;;;;;;7.57;1.98;;;18.20;99.90;;;;;;5066245;28;20128;-72
2022/07/22 07:52:01;;;;;;;5.95;1.60;;;18.30;99.90;;;;;;5082153;28;20055;-71
2022/07/22 07:54:26;;;;;;;8.98;2.05;;;18.30;99.90;;;;;;5085226;28;20251;-73
2022/07/22 07:56:52;;;;;;;7.60;2.00;;;18.40;99.90;;;;;;5085086;28;20044;-70
2022/07/22 07:59:18;;;;;;;5.90;1.75;;;18.30;99.90;;;;;;5072619;28;20043;-72
2022/07/22 08:01:44;;;;;;;7.25;1.88;;;18.30;99.90;;;;;;5067211;28;20166;-72
2022/07/22 08:04:10;;;;;;;6.70;1.88;;;18.40;99.90;;;;;;5066219;28;20082;-74
2022/07/22 08:06:35;;;;;;;6.90;1.70;;;18.50;99.90;;;;;;5086821;28;20547;-72
2022/07/22 08:09:01;;;;;;;7.55;1.83;;;18.60;99.90;;;;;;5070037;28;20086;-74
2022/07/22 08:11:27;;;;;;;7.72;1.80;;;18.60;99.90;;;;;;5084457;28;20047;-71
2022/07/22 08:13:53;;;;;;;6.20;1.90;;;18.60;99.90;;;;;;5047404;28;20102;-73
2022/07/22 08:16:18;;;;;;;7.97;1.90;;;18.70;99.90;;;;;;5050943;28;20050;-73
2022/07/22 08:18:44;;;;;;;8.00;1.80;;;18.70;99.90;;;;;;5062123;28;20044;-73
2022/07/22 08:21:10;;;;;;;7.68;1.90;;;18.60;99.90;;;;;;5081530;28;20040;-72
2022/07/22 08:23:35;;;;;;;8.20;1.80;;;18.50;99.90;;;;;;5081432;28;20097;-72
2022/07/22 08:26:01;;;;;;;8.73;1.98;;;18.40;99.90;;;;;;5047979;28;20086;-71
2022/07/22 08:28:27;;;;;;;8.30;1.83;;;18.50;99.90;;;;;;5068091;28;20060;-74
2022/07/22 08:30:53;;;;;;;6.63;1.70;;;18.50;99.90;;;;;;5082765;28;20066;-73
2022/07/22 08:33:19;;;;;;;6.35;1.67;;;18.70;99.90;;;;;;5047448;28;20127;-72
2022/07/22 08:35:45;;;;;;;6.82;1.70;;;18.80;99.90;;;;;;5081763;28;20475;-71
2022/07/22 08:38:11;;;;;;;5.72;1.60;;;18.90;99.90;;;;;;5067175;28;20097;-73
2022/07/22 08:40:37;;;;;;;6.07;1.70;;;19.10;99.90;;;;;;5051476;28;20051;-75
2022/07/22 08:43:03;;;;;;;6.25;1.40;;;19.10;99.90;;;;;;5063282;28;20127;-74
2022/07/22 08:45:30;;;;;;;5.70;1.50;;;19.10;99.90;;;;;;5086936;28;20052;-74
2022/07/22 08:47:58;;;;;;;5.30;1.60;;;19.10;99.90;;;;;;5062556;28;20059;-74
2022/07/22 08:50:24;;;;;;;8.98;1.80;;;19.10;99.90;;;;;;5066312;28;20391;-73
2022/07/22 08:52:49;;;;;;;7.43;1.80;;;18.90;99.90;;;;;;5064427;28;20056;-74
2022/07/22 08:55:15;;;;;;;7.18;1.70;;;18.90;99.90;;;;;;5064002;28;20483;-74
2022/07/22 08:57:48;;;;;;;6.88;1.70;;;18.90;99.90;;;;;;5060880;28;20055;-73
2022/07/22 09:00:22;;;;;;;8.65;1.88;;;18.90;99.90;;;;;;5067676;28;20056;-74
2022/07/22 09:02:48;;;;;;;6.80;1.67;;;19.00;99.90;;;;;;5069970;28;20082;-73
2022/07/22 09:05:15;;;;;;;8.65;1.90;;;19.00;99.90;;;;;;5083962;28;20123;-74
2022/07/22 09:07:43;;;;;;;6.88;1.80;;;19.00;99.90;;;;;;5062250;28;20054;-74
2022/07/22 09:10:16;;;;;;;6.03;1.70;;;18.90;99.90;;;;;;5084632;28;20124;-77
2022/07/22 09:12:54;;;;;;;7.85;1.70;;;18.90;99.90;;;;;;5068651;28;20099;-74
2022/07/22 09:15:31;;;;;;;6.65;1.60;;;18.80;99.90;;;;;;5046638;28;20075;-75
2022/07/22 09:17:59;;;;;;;7.10;1.73;;;18.80;99.90;;;;;;5061756;28;20076;-75
2022/07/22 09:20:25;;;;;;;6.28;1.70;;;18.80;99.90;;;;;;5069318;28;20051;-73
2022/07/22 09:22:52;;;;;;;7.45;1.60;;;18.80;99.90;;;;;;5066173;28;20054;-75
2022/07/22 09:25:33;;;;;;;8.15;1.73;;;18.70;99.90;;;;;;5063917;28;20059;-73
2022/07/22 09:28:05;;;;;;;6.00;1.60;;;18.70;99.90;;;;;;5060460;28;20045;-73
2022/07/22 09:30:33;;;;;;;6.05;1.50;;;18.70;99.90;;;;;;5061770;28;20403;-75
2022/07/22 09:32:59;;;;;;;6.82;1.67;;;18.60;99.90;;;;;;5088795;28;20308;-75
2022/07/22 09:35:25;;;;;;;5.55;1.63;;;18.60;99.90;;;;;;5045828;28;20498;-75
2022/07/22 09:37:59;;;;;;;5.70;1.50;;;18.60;99.90;;;;;;5077741;28;20045;-75
2022/07/22 09:40:27;;;;;;;7.72;1.70;;;18.60;99.90;;;;;;5049158;28;20048;-75
2022/07/22 09:42:59;;;;;;;6.07;1.60;;;18.70;99.90;;;;;;5069060;28;20044;-75
2022/07/22 09:45:27;;;;;;;6.35;1.90;;;18.70;99.90;;;;;;5070857;28;20399;-76
2022/07/22 09:47:55;;;;;;;6.07;1.52;;;18.70;99.90;;;;;;5051168;28;20054;-73
2022/07/22 09:50:30;;;;;;;6.88;1.77;;;18.80;99.90;;;;;;5070489;28;20052;-75
2022/07/22 09:52:57;;;;;;;5.63;1.65;;;18.80;99.90;;;;;;5068285;28;20496;-74
2022/07/22 09:55:24;;;;;;;7.03;1.60;;;18.90;99.90;;;;;;5073468;28;20072;-76
2022/07/22 09:57:51;;;;;;;6.65;1.70;;;18.90;99.90;;;;;;5051502;28;20057;-75
2022/07/22 10:00:20;;;;;;;7.13;1.60;;;18.80;99.90;;;;;;5056490;28;20066;-75
2022/07/22 10:02:55;;;;;;;6.53;1.50;;;18.90;99.90;;;;;;5053387;28;20047;-73
2022/07/22 10:05:26;;;;;;;7.00;1.50;;;19.00;99.90;;;;;;5053875;28;20048;-73
2022/07/22 10:07:53;;;;;;;5.68;1.50;;;19.10;99.90;;;;;;5070701;28;20079;-74
2022/07/22 10:10:30;;;;;;;5.40;1.60;;;19.30;99.90;;;;;;5073071;28;20131;-75
2022/07/22 10:12:58;;;;;;;5.72;1.67;;;19.40;99.90;;;;;;5069212;28;20047;-74
2022/07/22 10:15:26;;;;;;;6.35;1.75;;;19.50;99.90;;;;;;5055790;28;20044;-74
2022/07/22 10:17:57;;;;;;;6.00;1.60;;;19.50;99.90;;;;;;5072375;28;20394;-77
2022/07/22 10:20:26;;;;;;;5.60;1.77;;;19.50;99.90;;;;;;5068178;28;20087;-75
2022/07/22 10:22:54;;;;;;;5.78;1.50;;;19.50;99.90;;;;;;5081527;28;20055;-79
2022/07/22 10:25:23;;;;;;;7.75;1.83;;;19.50;99.90;;;;;;5066378;28;20453;-75
2022/07/22 10:27:56;;;;;;;6.20;1.73;;;19.60;99.90;;;;;;5063405;28;20495;-76
2022/07/22 10:30:28;;;;;;;6.13;1.50;;;19.60;99.90;;;;;;5063872;28;20052;-77
2022/07/22 10:33:02;;;;;;;;;;;19.60;99.90;;;;;;5066278;28;20495;-80
2022/07/22 10:35:29;;;;;;;5.85;1.50;;;19.50;99.90;;;;;;5081988;28;19920;-74
2022/07/22 10:37:56;;;;;;;7.90;1.60;;;19.60;99.90;;;;;;5065848;28;20083;-83
2022/07/22 10:40:28;;;;;;;7.53;1.80;;;19.50;99.90;;;;;;5048523;28;20045;-76
2022/07/22 10:42:57;;;;;;;;;;;19.40;99.90;;;;;;5065064;28;20127;-76
2022/07/22 10:45:25;;;;;;;5.82;1.60;;;19.40;99.90;;;;;;5088315;28;19927;-85
2022/07/22 10:47:58;;;;;;;7.13;1.60;;;19.40;99.90;;;;;;5066690;28;20048;-76
2022/07/22 10:50:37;;;;;;;6.55;1.48;;;19.40;99.90;;;;;;5069761;28;20048;-78
2022/07/22 10:53:14;;;;;;;6.72;1.45;;;19.40;99.90;;;;;;5065222;28;20067;-77
2022/07/22 10:56:00;;;;;;;5.93;1.63;;;19.40;99.90;;;;;;5065916;28;20044;-74
2022/07/22 10:58:35;;;;;;;6.47;1.70;;;19.30;99.90;;;;;;5065100;28;20048;-76
2022/07/22 11:01:06;;;;;;;5.57;1.70;;;19.30;99.90;;;;;;5067211;28;20056;-75
2022/07/22 11:03:33;;;;;;;4.47;1.60;;;19.40;99.90;;;;;;5048542;28;20044;-75
2022/07/22 11:06:17;;;;;;;7.60;1.60;;;19.40;99.90;;;;;;5065399;28;20050;-83
2022/07/22 11:08:44;;;;;;;6.55;1.60;;;19.40;99.90;;;;;;5068879;28;20409;-83
2022/07/22 11:11:10;;;;;;;7.82;1.80;;;19.40;99.90;;;;;;5039937;28;20048;-76
2022/07/22 11:13:39;;;;;;;6.10;1.60;;;19.40;99.90;;;;;;5063118;28;20048;-76
2022/07/22 11:16:21;;;;;;;8.77;1.70;;;19.40;99.90;;;;;;5051472;28;20044;-76
2022/07/22 11:18:48;;;;;;;8.68;1.92;;;19.50;99.90;;;;;;5048956;28;20058;-76
2022/07/22 11:21:16;;;;;;;6.25;1.65;;;19.40;99.90;;;;;;5070219;28;20051;-82
2022/07/22 11:23:42;;;;;;;7.20;1.70;;;19.30;99.90;;;;;;5052504;28;20093;-78
2022/07/22 11:26:13;;;;;;;7.35;1.85;;;19.20;99.90;;;;;;5078823;28;20486;-77
2022/07/22 11:28:41;;;;;;;5.85;1.48;;;19.20;99.90;;;;;;5084026;28;20125;-76
2022/07/22 11:31:08;;;;;;;7.10;1.80;;;19.30;99.90;;;;;;5066717;28;20114;-75
2022/07/22 11:33:34;;;;;;;5.82;1.60;;;19.40;99.90;;;;;;5068663;28;20044;-80
2022/07/22 11:36:03;;;;;;;6.90;1.80;;;19.50;99.90;;;;;;5049985;28;21189;-75
2022/07/22 11:38:49;;;;;;;9.15;1.88;;;19.50;99.90;;;;;;5078577;28;20048;-78
2022/07/22 11:41:18;;;;;;;5.32;1.77;;;19.60;99.90;;;;;;5071500;28;20040;-74
2022/07/22 11:43:47;;;;;;;5.47;1.75;;;19.60;99.90;;;;;;5054110;28;20047;-84
2022/07/22 11:46:15;;;;;;;7.50;1.80;;;19.70;99.90;;;;;;5065031;28;20060;-75
2022/07/22 11:48:42;;;;;;;6.78;1.85;;;19.80;99.90;;;;;;5061607;28;20081;-74
2022/07/22 11:51:10;;;;;;;6.82;1.77;;;19.90;99.90;;;;;;5033609;28;20166;-75
2022/07/22 11:53:40;;;;;;;8.35;1.92;;;19.90;99.90;;;;;;5063545;28;20091;-77
2022/07/22 11:56:07;;;;;;;6.43;1.58;;;20.00;99.90;;;;;;5065733;28;20144;-76
2022/07/22 11:58:46;;;;;;;6.35;1.70;;;20.00;99.90;;;;;;5064660;28;20040;-77
2022/07/22 12:01:17;;;;;;;6.53;1.70;;;20.10;99.90;;;;;;5053558;28;20048;-76
2022/07/22 12:03:52;;;;;;;7.22;1.60;;;20.10;99.90;;;;;;5081595;28;20056;-76
2022/07/22 12:06:19;;;;;;;5.55;1.60;;;20.10;99.90;;;;;;5068836;28;20401;-77
2022/07/22 12:08:48;;;;;;;4.63;1.40;;;20.10;99.90;;;;;;5067920;28;20055;-81
2022/07/22 12:11:15;;;;;;;6.47;1.90;;;20.10;99.90;;;;;;5054046;28;20055;-77
2022/07/22 12:13:43;;;;;;;6.78;1.67;;;19.90;99.90;;;;;;5065601;28;20075;-84
2022/07/22 12:16:29;;;;;;;6.75;1.80;;;19.80;99.90;;;;;;5065494;28;20052;-73
2022/07/22 12:18:58;;;;;;;7.15;1.63;;;19.70;99.90;;;;;;5064745;28;20056;-74
2022/07/22 12:21:26;;;;;;;7.68;1.60;;;19.80;99.90;;;;;;5047929;28;20055;-74
2022/07/22 12:23:55;;;;;;;6.53;1.50;;;20.00;99.90;;;;;;5064009;28;20044;-77
2022/07/22 12:26:47;;;;;;;7.00;1.60;;;20.00;99.90;;;;;;5062802;28;20483;-76
2022/07/22 12:29:12;;;;;;;6.65;1.50;;;19.80;99.90;;;;;;5063911;28;20036;-77
2022/07/22 12:32:06;;;;;;;6.78;1.52;;;19.80;99.90;;;;;;5049254;28;20071;-77
2022/07/22 12:34:47;;;;;;;5.13;1.40;;;19.80;99.90;;;;;;5038634;28;20506;-81
2022/07/22 12:37:21;;;;;;;5.53;1.55;;;20.20;99.90;;;;;;5065641;28;20469;-76
2022/07/22 12:40:05;;;;;;;7.05;1.58;;;20.00;99.90;;;;;;5064510;28;20056;-75
2022/07/22 12:42:47;;;;;;;4.82;1.35;;;20.10;99.00;;;;;;5065211;28;20116;-76
2022/07/22 12:45:17;;;;;;;5.07;1.27;;;20.10;99.90;;;;;;5063585;28;20051;-76
2022/07/22 12:48:06;;;;;;;5.32;1.20;;;20.20;99.90;;;;;;5064326;28;20396;-77